Terminal Aerodrome Forecast
Issued by NWS

Home | Current Version | Previous Version | Text Only | Print | Product List | Glossary On
Versions: 1 2 3 4 5 6 7 8 9 10 11 12 13 14 15 16 17 18 19 20 21
000
FTUS43 KDVN 251100
TAFCID
TAF
KCID 251120Z 2512/2612 27008KT 3SM BR OVC004
      TEMPO 2512/2515 SCT004 OVC013
     FM251500 28012KT 4SM BR OVC005
     FM251900 29015G23KT P6SM SCT020 BKN050
     FM252300 31014KT P6SM BKN200=

USA.gov is the U.S. government's official web portal to all federal, state and local government web resources and services.